createdAt,value
2022-08-17T00:02:26.892Z,5.63
2022-08-17T00:05:34.492Z,3.58
2022-08-17T00:08:40.139Z,3.25
2022-08-17T00:12:34.715Z,3.72
2022-08-17T00:15:08.344Z,4.57
2022-08-17T00:19:00.918Z,4.28
2022-08-17T00:22:29.609Z,3.55
2022-08-17T00:25:01.939Z,3.78
2022-08-17T00:28:06.251Z,3.15
2022-08-17T00:31:10.671Z,2.65
2022-08-17T00:34:12.941Z,3.05
2022-08-17T00:37:15.187Z,5.18
2022-08-17T00:40:18.239Z,3.30
2022-08-17T00:43:22.687Z,2.58
2022-08-17T00:46:31.010Z,3.13
2022-08-17T00:49:33.332Z,3.45
2022-08-17T00:52:43.796Z,3.40
2022-08-17T00:55:46.736Z,3.70
2022-08-17T00:58:51.776Z,3.17
2022-08-17T01:01:54.261Z,3.70
2022-08-17T01:04:57.224Z,3.38
2022-08-17T01:08:01.803Z,3.03
2022-08-17T01:11:05.519Z,3.28
2022-08-17T01:14:09.176Z,5.35
2022-08-17T01:17:11.849Z,3.30
2022-08-17T01:20:14.164Z,4.80
2022-08-17T01:23:20.733Z,3.00
2022-08-17T01:26:23.789Z,3.83
2022-08-17T01:29:30.886Z,2.85
2022-08-17T01:32:33.636Z,4.45
2022-08-17T01:35:35.871Z,3.65
2022-08-17T01:38:39.425Z,3.70
2022-08-17T01:41:42.025Z,3.45
2022-08-17T01:44:45.267Z,3.10
2022-08-17T01:47:47.495Z,4.32
2022-08-17T01:50:52.279Z,3.30
2022-08-17T01:53:57.671Z,3.17
2022-08-17T01:56:59.859Z,4.07
2022-08-17T02:00:04.423Z,3.10
2022-08-17T02:03:14.377Z,3.20
2022-08-17T02:06:27.830Z,3.63
2022-08-17T02:09:30.985Z,3.85
2022-08-17T02:12:38.778Z,3.40
2022-08-17T02:15:42.237Z,3.30
2022-08-17T02:18:44.682Z,5.15
2022-08-17T02:21:49.300Z,3.60
2022-08-17T02:24:58.366Z,4.63
2022-08-17T02:28:04.398Z,4.03
2022-08-17T02:31:09.503Z,3.50
2022-08-17T02:34:12.556Z,3.92
2022-08-17T02:37:18.823Z,3.80
2022-08-17T02:40:35.755Z,4.00
2022-08-17T02:43:38.906Z,3.03
2022-08-17T02:46:41.106Z,3.58
2022-08-17T02:49:54.083Z,3.88
2022-08-17T02:53:02.369Z,4.43
2022-08-17T02:56:07.086Z,4.97
2022-08-17T02:59:09.360Z,3.90
2022-08-17T03:02:12.697Z,4.20
2022-08-17T03:05:17.597Z,3.80
2022-08-17T03:08:20.489Z,3.80
2022-08-17T03:11:23.658Z,4.40
2022-08-17T03:14:26.220Z,3.47
2022-08-17T03:17:28.756Z,3.70
2022-08-17T03:20:32.957Z,3.40
2022-08-17T03:23:41.185Z,3.97
2022-08-17T03:26:46.144Z,3.47
2022-08-17T03:29:49.431Z,5.78
2022-08-17T03:32:54.974Z,3.65
2022-08-17T03:35:57.202Z,3.75
2022-08-17T03:38:59.385Z,3.00
2022-08-17T03:42:09.709Z,4.20
2022-08-17T03:45:50.508Z,3.97
2022-08-17T03:49:14.374Z,3.83
2022-08-17T03:52:35.386Z,5.05
2022-08-17T03:56:04.980Z,3.83
2022-08-17T03:59:20.979Z,3.92
2022-08-17T04:02:30.774Z,4.10
2022-08-17T04:05:34.607Z,3.70
2022-08-17T04:08:36.926Z,4.97
2022-08-17T04:11:40.041Z,3.53
2022-08-17T04:14:53.764Z,3.25
2022-08-17T04:17:56.870Z,4.28
2022-08-17T04:21:00.104Z,3.53
2022-08-17T04:24:02.998Z,4.05
2022-08-17T04:27:05.323Z,3.75
2022-08-17T04:30:08.271Z,4.65
2022-08-17T04:33:14.271Z,4.00
2022-08-17T04:36:17.751Z,3.72
2022-08-17T04:39:19.938Z,4.13
2022-08-17T04:42:22.117Z,4.25
2022-08-17T04:45:24.369Z,3.75
2022-08-17T04:48:36.226Z,4.82
2022-08-17T04:51:55.700Z,5.95
2022-08-17T04:55:04.488Z,4.47
2022-08-17T04:58:08.206Z,4.60
2022-08-17T05:01:12.744Z,4.95
2022-08-17T05:04:33.910Z,3.95
2022-08-17T05:07:36.925Z,3.33
2022-08-17T05:10:39.173Z,4.07
2022-08-17T05:13:50.466Z,4.07
2022-08-17T05:16:52.766Z,5.15
2022-08-17T05:19:55.113Z,3.55
2022-08-17T05:23:01.100Z,4.82
2022-08-17T05:26:05.151Z,4.43
2022-08-17T05:29:10.072Z,3.80
2022-08-17T05:32:38.357Z,3.85
2022-08-17T05:35:38.710Z,3.28
2022-08-17T05:38:41.199Z,4.63
2022-08-17T05:41:43.464Z,3.50
2022-08-17T05:44:46.456Z,3.60
2022-08-17T05:47:48.730Z,4.13
2022-08-17T05:51:03.755Z,4.43
2022-08-17T05:54:14.838Z,3.28
2022-08-17T05:57:23.062Z,3.88
2022-08-17T06:00:31.662Z,4.28
2022-08-17T06:04:00.801Z,3.80
2022-08-17T06:07:31.919Z,3.58
2022-08-17T06:10:56.300Z,3.75
2022-08-17T06:14:23.754Z,4.95
2022-08-17T06:17:30.300Z,3.92
2022-08-17T06:20:48.904Z,4.20
2022-08-17T06:23:59.529Z,3.45
2022-08-17T06:27:23.485Z,3.22
2022-08-17T06:30:28.950Z,4.63
2022-08-17T06:33:51.212Z,3.15
2022-08-17T06:37:22.542Z,3.35
2022-08-17T06:40:33.335Z,4.13
2022-08-17T06:43:48.805Z,3.45
2022-08-17T06:46:58.341Z,3.28
2022-08-17T06:50:35.189Z,4.00
2022-08-17T06:54:01.320Z,4.05
2022-08-17T06:57:28.579Z,3.63
2022-08-17T07:00:40.849Z,2.97
2022-08-17T07:04:05.141Z,3.15
2022-08-17T07:07:32.895Z,4.25
2022-08-17T07:10:48.069Z,3.75
2022-08-17T07:14:17.418Z,2.92
2022-08-17T07:17:22.050Z,3.05
2022-08-17T07:20:49.728Z,3.83
2022-08-17T07:24:29.976Z,2.85
2022-08-17T07:27:38.731Z,3.20
2022-08-17T07:30:51.302Z,3.28
2022-08-17T07:34:14.745Z,3.05
2022-08-17T07:37:19.621Z,2.80
2022-08-17T07:40:27.307Z,3.08
2022-08-17T07:43:32.387Z,3.38
2022-08-17T07:47:07.513Z,3.30
2022-08-17T07:50:29.745Z,2.80
2022-08-17T07:53:32.193Z,3.55
2022-08-17T07:56:38.046Z,3.30
2022-08-17T08:00:01.653Z,2.90
2022-08-17T08:03:26.255Z,4.78
2022-08-17T08:06:28.753Z,2.80
2022-08-17T08:09:41.538Z,3.95
2022-08-17T08:13:12.310Z,3.65
2022-08-17T08:16:17.469Z,5.45
2022-08-17T08:19:21.173Z,4.43
2022-08-17T08:22:35.082Z,5.63
2022-08-17T08:25:37.250Z,3.35
2022-08-17T08:28:51.352Z,3.00
2022-08-17T08:31:57.327Z,3.83
2022-08-17T08:35:09.112Z,3.90
2022-08-17T08:38:23.976Z,3.38
2022-08-17T08:41:55.383Z,3.22
2022-08-17T08:45:06.839Z,3.50
2022-08-17T08:48:56.696Z,3.33
2022-08-17T08:52:04.709Z,3.67
2022-08-17T08:55:22.111Z,3.88
2022-08-17T08:58:59.721Z,3.42
2022-08-17T09:02:29.870Z,3.05
2022-08-17T09:05:54.275Z,3.10
2022-08-17T09:09:17.971Z,5.03
2022-08-17T09:12:48.349Z,3.97
2022-08-17T09:16:03.041Z,3.88
2022-08-17T09:19:30.647Z,3.53
2022-08-17T09:22:45.202Z,3.42
2022-08-17T09:25:58.361Z,2.92
2022-08-17T09:29:05.816Z,4.22
2022-08-17T09:32:21.713Z,4.35
2022-08-17T09:35:38.141Z,4.82
2022-08-17T09:39:10.212Z,5.38
2022-08-17T09:42:22.959Z,3.95
2022-08-17T09:45:25.210Z,4.20
2022-08-17T09:48:41.792Z,3.40
2022-08-17T09:51:54.115Z,3.72
2022-08-17T09:54:59.448Z,4.40
2022-08-17T09:58:18.822Z,4.93
2022-08-17T10:01:38.634Z,3.30
2022-08-17T10:04:53.902Z,3.70
2022-08-17T10:08:02.023Z,3.75
2022-08-17T10:11:51.893Z,3.58
2022-08-17T10:15:08.189Z,6.47
2022-08-17T10:18:14.769Z,4.00
2022-08-17T10:21:37.559Z,4.90
2022-08-17T10:25:22.137Z,4.57
2022-08-17T10:28:33.138Z,3.83
2022-08-17T10:31:41.294Z,3.97
2022-08-17T10:35:05.147Z,4.15
2022-08-17T10:38:21.569Z,4.65
2022-08-17T10:41:43.408Z,4.70
2022-08-17T10:44:46.990Z,4.55
2022-08-17T10:48:18.207Z,4.53
2022-08-17T10:51:42.110Z,3.75
2022-08-17T10:54:58.020Z,4.97
2022-08-17T10:58:22.204Z,3.90
2022-08-17T11:01:33.939Z,5.00
2022-08-17T11:05:01.240Z,4.65
2022-08-17T11:08:34.200Z,4.43
2022-08-17T11:12:07.330Z,3.63
2022-08-17T11:15:51.646Z,6.57
2022-08-17T11:19:16.569Z,4.75
2022-08-17T11:22:58.029Z,4.43
2022-08-17T11:26:08.380Z,3.80
2022-08-17T11:29:25.348Z,7.25
2022-08-17T11:32:37.445Z,5.35
2022-08-17T11:35:48.861Z,5.07
2022-08-17T11:39:21.315Z,4.68
2022-08-17T11:42:50.360Z,6.93
2022-08-17T11:45:52.891Z,5.22
2022-08-17T11:49:26.258Z,6.07
2022-08-17T11:52:47.424Z,7.30
2022-08-17T11:55:52.490Z,5.25
2022-08-17T11:58:55.216Z,6.80
2022-08-17T12:01:57.653Z,4.90
2022-08-17T12:05:12.530Z,5.38
2022-08-17T12:08:24.790Z,6.90
2022-08-17T12:12:01.666Z,5.63
2022-08-17T12:15:35.394Z,9.82
2022-08-17T12:18:39.846Z,5.80
2022-08-17T12:21:53.966Z,6.50
2022-08-17T12:25:00.255Z,5.55
2022-08-17T12:28:06.582Z,6.20
2022-08-17T12:31:20.342Z,7.80
2022-08-17T12:34:36.107Z,7.22
2022-08-17T12:37:47.224Z,4.25
2022-08-17T12:40:58.272Z,5.07
2022-08-17T12:44:03.881Z,3.83
2022-08-17T12:47:22.815Z,4.78
2022-08-17T12:50:29.282Z,3.53
2022-08-17T12:53:35.938Z,5.03
2022-08-17T12:56:38.296Z,3.13
2022-08-17T12:59:51.821Z,3.55
2022-08-17T13:03:06.048Z,4.93
2022-08-17T13:06:12.947Z,4.25
2022-08-17T13:09:39.982Z,6.15
2022-08-17T13:12:43.485Z,4.32
2022-08-17T13:15:53.135Z,5.13
2022-08-17T13:22:12.781Z,4.85
2022-08-17T13:25:17.123Z,5.38
2022-08-17T13:28:30.744Z,4.82
2022-08-17T13:31:50.426Z,3.30
2022-08-17T13:35:14.413Z,4.43
2022-08-17T13:38:51.109Z,4.35
2022-08-17T13:41:56.225Z,5.88
2022-08-17T13:44:58.800Z,4.72
2022-08-17T13:48:22.823Z,4.72
2022-08-17T13:51:32.751Z,5.68
2022-08-17T13:54:37.486Z,3.83
2022-08-17T13:57:47.019Z,6.90
2022-08-17T14:00:50.820Z,5.38
2022-08-17T14:03:53.195Z,4.35
2022-08-17T14:07:13.475Z,6.63
2022-08-17T14:10:18.205Z,5.32
2022-08-17T14:13:20.465Z,5.30
2022-08-17T14:16:22.649Z,6.68
2022-08-17T14:19:25.694Z,5.28
2022-08-17T14:22:30.681Z,5.28
2022-08-17T14:25:32.977Z,7.70
2022-08-17T14:28:36.393Z,5.47
2022-08-17T14:31:39.160Z,6.32
2022-08-17T14:34:41.429Z,4.53
2022-08-17T14:37:45.827Z,3.88
2022-08-17T14:40:49.628Z,6.10
2022-08-17T14:43:53.539Z,6.43
2022-08-17T14:46:55.912Z,5.05
2022-08-17T14:49:59.286Z,3.80
2022-08-17T14:53:03.878Z,5.35
2022-08-17T14:56:06.282Z,4.82
2022-08-17T14:59:08.517Z,7.15
2022-08-17T15:02:10.987Z,4.18
2022-08-17T15:05:16.222Z,6.20
2022-08-17T15:08:19.732Z,4.63
2022-08-17T15:11:22.109Z,3.60
2022-08-17T15:14:24.520Z,4.20
2022-08-17T15:17:26.854Z,4.57
2022-08-17T15:20:49.291Z,4.30
2022-08-17T15:23:51.553Z,5.75
2022-08-17T15:26:53.819Z,7.88
2022-08-17T15:29:56.105Z,5.90
2022-08-17T15:33:00.604Z,4.55
2022-08-17T15:36:09.300Z,4.70
2022-08-17T15:39:11.505Z,7.22
2022-08-17T15:42:14.757Z,5.22
2022-08-17T15:45:23.054Z,5.20
2022-08-17T15:48:40.700Z,6.30
2022-08-17T15:51:42.872Z,6.32
2022-08-17T15:55:00.022Z,9.60
2022-08-17T15:58:02.483Z,9.57
2022-08-17T16:01:14.727Z,11.35
2022-08-17T16:04:29.723Z,8.25
2022-08-17T16:07:32.843Z,7.30
2022-08-17T16:10:36.195Z,6.95
2022-08-17T16:13:39.842Z,6.38
2022-08-17T16:16:42.001Z,7.05
2022-08-17T16:19:46.460Z,6.95
2022-08-17T16:22:50.403Z,8.45
2022-08-17T16:25:54.448Z,9.95
2022-08-17T16:29:01.964Z,7.00
2022-08-17T16:32:13.960Z,7.80
2022-08-17T16:35:17.131Z,5.28
2022-08-17T16:38:19.479Z,4.95
2022-08-17T16:41:45.096Z,5.38
2022-08-17T16:44:47.488Z,5.90
2022-08-17T16:47:52.446Z,8.90
2022-08-17T16:51:03.443Z,7.10
2022-08-17T16:54:07.218Z,9.52
2022-08-17T16:57:12.713Z,7.53
2022-08-17T17:00:17.360Z,6.35
2022-08-17T17:03:22.215Z,6.30
2022-08-17T17:06:47.714Z,7.15
2022-08-17T17:09:53.498Z,5.43
2022-08-17T17:13:03.730Z,5.40
2022-08-17T17:16:15.292Z,8.55
2022-08-17T17:19:46.553Z,6.00
2022-08-17T17:23:18.436Z,5.43
2022-08-17T17:26:28.647Z,4.35
2022-08-17T17:29:48.216Z,7.13
2022-08-17T17:33:05.753Z,5.60
2022-08-17T17:36:22.574Z,4.82
2022-08-17T17:39:53.039Z,7.57
2022-08-17T17:43:14.362Z,4.97
2022-08-17T17:46:29.604Z,5.13
2022-08-17T17:49:39.131Z,6.93
2022-08-17T17:53:02.266Z,7.05
2022-08-17T17:56:44.644Z,7.15
2022-08-17T18:00:08.920Z,7.50
2022-08-17T18:03:45.932Z,5.35
2022-08-17T18:07:00.377Z,5.93
2022-08-17T18:10:50.001Z,5.80
2022-08-17T18:17:18.173Z,5.25
2022-08-17T18:20:32.405Z,4.72
2022-08-17T18:23:56.392Z,5.97
2022-08-17T18:27:00.905Z,5.25
2022-08-17T18:30:15.245Z,5.85
2022-08-17T18:33:26.677Z,5.75
2022-08-17T18:36:32.915Z,5.15
2022-08-17T18:39:37.227Z,6.75
2022-08-17T18:42:39.475Z,5.68
2022-08-17T18:45:51.954Z,4.43
2022-08-17T18:49:00.909Z,4.40
2022-08-17T18:52:23.004Z,7.35
2022-08-17T18:55:31.522Z,4.30
2022-08-17T18:58:34.668Z,4.13
2022-08-17T19:01:59.188Z,4.45
2022-08-17T19:05:13.552Z,4.50
2022-08-17T19:08:24.574Z,3.88
2022-08-17T19:11:30.503Z,3.97
2022-08-17T19:14:33.361Z,5.10
2022-08-17T19:17:53.415Z,4.10
2022-08-17T19:21:01.956Z,5.10
2022-08-17T19:24:13.113Z,4.07
2022-08-17T19:27:32.127Z,3.63
2022-08-17T19:30:40.025Z,3.63
2022-08-17T19:33:47.927Z,3.70
2022-08-17T19:36:56.902Z,3.53
2022-08-17T19:40:08.751Z,4.88
2022-08-17T19:43:19.561Z,3.63
2022-08-17T19:46:48.650Z,3.35
2022-08-17T19:49:58.110Z,3.67
2022-08-17T19:53:09.652Z,3.13
2022-08-17T19:56:41.050Z,3.80
2022-08-17T20:00:13.072Z,2.80
2022-08-17T20:03:23.193Z,3.42
2022-08-17T20:06:30.808Z,3.65
2022-08-17T20:09:41.117Z,3.80
2022-08-17T20:12:44.705Z,3.63
2022-08-17T20:15:47.347Z,3.95
2022-08-17T20:19:04.086Z,3.67
2022-08-17T20:22:24.772Z,3.13
2022-08-17T20:25:59.258Z,2.60
2022-08-17T20:29:19.619Z,2.63
2022-08-17T20:32:53.946Z,4.43
2022-08-17T20:36:10.131Z,3.63
2022-08-17T20:39:36.311Z,4.50
2022-08-17T20:42:39.268Z,3.70
2022-08-17T20:45:46.570Z,4.20
2022-08-17T20:48:57.040Z,3.35
2022-08-17T20:52:09.108Z,3.88
2022-08-17T20:55:34.404Z,3.13
2022-08-17T20:58:46.627Z,3.15
2022-08-17T21:02:17.690Z,2.75
2022-08-17T21:06:00.216Z,3.05
2022-08-17T21:09:29.766Z,4.55
2022-08-17T21:12:50.201Z,3.17
2022-08-17T21:15:53.726Z,2.85
2022-08-17T21:19:17.019Z,3.22
2022-08-17T21:22:25.299Z,3.20
2022-08-17T21:25:57.900Z,3.83
2022-08-17T21:29:30.210Z,2.90
2022-08-17T21:32:35.641Z,3.15
2022-08-17T21:36:07.822Z,2.63
2022-08-17T21:39:16.260Z,2.92
2022-08-17T21:42:25.235Z,3.03
2022-08-17T21:45:35.201Z,4.10
2022-08-17T21:48:48.326Z,3.03
2022-08-17T21:51:55.119Z,3.03
2022-08-17T21:55:02.533Z,4.97
2022-08-17T21:58:27.089Z,3.05
2022-08-17T22:01:35.604Z,3.42
2022-08-17T22:04:41.118Z,2.58
2022-08-17T22:07:50.981Z,5.38
2022-08-17T22:11:01.810Z,4.10
2022-08-17T22:14:17.761Z,3.03
2022-08-17T22:17:21.762Z,2.85
2022-08-17T22:20:24.198Z,2.50
2022-08-17T22:23:53.551Z,2.85
2022-08-17T22:27:10.490Z,2.28
2022-08-17T22:30:27.543Z,2.50
2022-08-17T22:33:46.958Z,3.38
2022-08-17T22:36:49.102Z,2.97
2022-08-17T22:39:59.477Z,4.43
2022-08-17T22:43:04.214Z,3.80
2022-08-17T22:46:09.142Z,2.70
2022-08-17T22:49:11.627Z,4.30
2022-08-17T22:52:16.574Z,2.65
2022-08-17T22:55:37.558Z,2.95
2022-08-17T22:59:16.896Z,2.90
2022-08-17T23:02:28.415Z,3.47
2022-08-17T23:05:31.517Z,3.97
2022-08-17T23:08:37.156Z,2.45
2022-08-17T23:11:50.037Z,2.83
2022-08-17T23:15:01.037Z,3.85
2022-08-17T23:18:04.879Z,2.95
2022-08-17T23:21:07.876Z,2.72
2022-08-17T23:24:14.694Z,2.47
2022-08-17T23:27:19.029Z,3.83
2022-08-17T23:30:23.334Z,2.55
2022-08-17T23:33:33.813Z,4.75
2022-08-17T23:36:36.573Z,2.65
2022-08-17T23:39:39.718Z,2.70
2022-08-17T23:42:47.334Z,3.42
2022-08-17T23:45:49.642Z,3.20
2022-08-17T23:48:54.099Z,3.03
2022-08-17T23:51:56.736Z,4.15
2022-08-17T23:54:59.535Z,3.33
2022-08-17T23:58:04.257Z,3.70
